sensor_id;sensor_type;location;lat;lon;timestamp;temperature;humidity
70830;SHT30;58451;51.550;7.208;2023-06-14T00:01:23;17.19;52.10
70830;SHT30;58451;51.550;7.208;2023-06-14T00:02:55;17.17;52.18
70830;SHT30;58451;51.550;7.208;2023-06-14T00:04:27;17.17;52.12
70830;SHT30;58451;51.550;7.208;2023-06-14T00:06:00;17.17;52.08
70830;SHT30;58451;51.550;7.208;2023-06-14T00:07:36;17.16;52.00
70830;SHT30;58451;51.550;7.208;2023-06-14T00:09:14;17.13;52.02
70830;SHT30;58451;51.550;7.208;2023-06-14T00:10:46;17.13;52.00
70830;SHT30;58451;51.550;7.208;2023-06-14T00:12:18;17.10;52.00
70830;SHT30;58451;51.550;7.208;2023-06-14T00:13:50;17.09;52.03
70830;SHT30;58451;51.550;7.208;2023-06-14T00:15:22;17.07;52.08
70830;SHT30;58451;51.550;7.208;2023-06-14T00:16:55;17.05;52.13
70830;SHT30;58451;51.550;7.208;2023-06-14T00:18:30;17.03;52.13
70830;SHT30;58451;51.550;7.208;2023-06-14T00:20:02;17.01;52.17
70830;SHT30;58451;51.550;7.208;2023-06-14T00:21:39;16.99;52.18
70830;SHT30;58451;51.550;7.208;2023-06-14T00:23:12;16.97;52.20
70830;SHT30;58451;51.550;7.208;2023-06-14T00:24:44;16.94;52.20
70830;SHT30;58451;51.550;7.208;2023-06-14T00:26:15;16.93;52.23
70830;SHT30;58451;51.550;7.208;2023-06-14T00:27:48;16.89;52.28
70830;SHT30;58451;51.550;7.208;2023-06-14T00:29:20;16.87;52.28
70830;SHT30;58451;51.550;7.208;2023-06-14T00:30:52;16.85;52.32
70830;SHT30;58451;51.550;7.208;2023-06-14T00:32:25;16.84;52.35
70830;SHT30;58451;51.550;7.208;2023-06-14T00:34:00;16.82;52.35
70830;SHT30;58451;51.550;7.208;2023-06-14T00:35:31;16.80;52.35
70830;SHT30;58451;51.550;7.208;2023-06-14T00:37:03;16.77;52.33
70830;SHT30;58451;51.550;7.208;2023-06-14T00:38:36;16.74;52.32
70830;SHT30;58451;51.550;7.208;2023-06-14T00:40:08;16.74;52.32
70830;SHT30;58451;51.550;7.208;2023-06-14T00:41:41;16.71;52.33
70830;SHT30;58451;51.550;7.208;2023-06-14T00:43:13;16.68;52.40
70830;SHT30;58451;51.550;7.208;2023-06-14T00:44:47;16.66;52.43
70830;SHT30;58451;51.550;7.208;2023-06-14T00:46:19;16.66;52.50
70830;SHT30;58451;51.550;7.208;2023-06-14T00:47:51;16.64;52.50
70830;SHT30;58451;51.550;7.208;2023-06-14T00:49:28;16.62;52.33
70830;SHT30;58451;51.550;7.208;2023-06-14T00:51:01;16.62;52.28
70830;SHT30;58451;51.550;7.208;2023-06-14T00:52:36;16.60;52.27
70830;SHT30;58451;51.550;7.208;2023-06-14T00:54:08;16.58;52.25
70830;SHT30;58451;51.550;7.208;2023-06-14T00:55:41;16.57;52.40
70830;SHT30;58451;51.550;7.208;2023-06-14T00:57:13;16.56;52.37
70830;SHT30;58451;51.550;7.208;2023-06-14T00:58:45;16.55;52.37
70830;SHT30;58451;51.550;7.208;2023-06-14T01:00:18;16.55;52.38
70830;SHT30;58451;51.550;7.208;2023-06-14T01:01:50;16.55;52.30
70830;SHT30;58451;51.550;7.208;2023-06-14T01:03:22;16.53;52.30
70830;SHT30;58451;51.550;7.208;2023-06-14T01:04:55;16.52;52.30
70830;SHT30;58451;51.550;7.208;2023-06-14T01:10:46;16.46;51.93
70830;SHT30;58451;51.550;7.208;2023-06-14T01:12:37;16.44;51.87
70830;SHT30;58451;51.550;7.208;2023-06-14T01:14:20;16.42;51.82
70830;SHT30;58451;51.550;7.208;2023-06-14T01:15:53;16.41;51.75
70830;SHT30;58451;51.550;7.208;2023-06-14T01:17:27;16.41;51.78
70830;SHT30;58451;51.550;7.208;2023-06-14T01:19:03;16.39;51.82
70830;SHT30;58451;51.550;7.208;2023-06-14T01:20:36;16.41;51.63
70830;SHT30;58451;51.550;7.208;2023-06-14T01:22:10;16.40;51.65
70830;SHT30;58451;51.550;7.208;2023-06-14T01:23:42;16.40;51.57
70830;SHT30;58451;51.550;7.208;2023-06-14T01:25:14;16.40;51.52
70830;SHT30;58451;51.550;7.208;2023-06-14T01:26:50;16.40;51.43
70830;SHT30;58451;51.550;7.208;2023-06-14T01:28:27;16.40;51.37
70830;SHT30;58451;51.550;7.208;2023-06-14T01:30:03;16.40;51.23
70830;SHT30;58451;51.550;7.208;2023-06-14T01:31:36;16.39;51.17
70830;SHT30;58451;51.550;7.208;2023-06-14T01:33:13;16.39;51.22
70830;SHT30;58451;51.550;7.208;2023-06-14T01:34:49;16.40;51.07
70830;SHT30;58451;51.550;7.208;2023-06-14T01:36:21;16.39;51.03
70830;SHT30;58451;51.550;7.208;2023-06-14T01:37:56;16.38;51.05
70830;SHT30;58451;51.550;7.208;2023-06-14T01:39:29;16.38;50.93
70830;SHT30;58451;51.550;7.208;2023-06-14T01:41:02;16.38;50.77
70830;SHT30;58451;51.550;7.208;2023-06-14T01:42:36;16.39;50.58
70830;SHT30;58451;51.550;7.208;2023-06-14T01:44:10;16.39;50.52
70830;SHT30;58451;51.550;7.208;2023-06-14T01:45:47;16.37;50.45
70830;SHT30;58451;51.550;7.208;2023-06-14T01:47:22;16.37;50.50
70830;SHT30;58451;51.550;7.208;2023-06-14T01:48:56;16.36;50.42
70830;SHT30;58451;51.550;7.208;2023-06-14T01:50:30;16.35;50.33
70830;SHT30;58451;51.550;7.208;2023-06-14T01:52:02;16.33;50.32
70830;SHT30;58451;51.550;7.208;2023-06-14T01:53:35;16.33;50.25
70830;SHT30;58451;51.550;7.208;2023-06-14T01:55:08;16.32;50.25
70830;SHT30;58451;51.550;7.208;2023-06-14T01:56:40;16.32;50.25
70830;SHT30;58451;51.550;7.208;2023-06-14T01:58:13;16.29;50.25
70830;SHT30;58451;51.550;7.208;2023-06-14T01:59:46;16.27;50.28
70830;SHT30;58451;51.550;7.208;2023-06-14T02:01:20;16.24;50.52
70830;SHT30;58451;51.550;7.208;2023-06-14T02:02:53;16.22;50.37
70830;SHT30;58451;51.550;7.208;2023-06-14T02:04:25;16.20;50.32
70830;SHT30;58451;51.550;7.208;2023-06-14T02:05:56;16.19;50.42
70830;SHT30;58451;51.550;7.208;2023-06-14T02:07:29;16.16;50.42
70830;SHT30;58451;51.550;7.208;2023-06-14T02:09:02;16.16;50.62
70830;SHT30;58451;51.550;7.208;2023-06-14T02:10:35;16.15;50.45
70830;SHT30;58451;51.550;7.208;2023-06-14T02:12:08;16.12;50.47
70830;SHT30;58451;51.550;7.208;2023-06-14T02:13:41;16.10;50.57
70830;SHT30;58451;51.550;7.208;2023-06-14T02:15:13;16.08;50.52
70830;SHT30;58451;51.550;7.208;2023-06-14T02:16:48;16.08;50.63
70830;SHT30;58451;51.550;7.208;2023-06-14T02:18:20;16.07;50.65
70830;SHT30;58451;51.550;7.208;2023-06-14T02:19:52;16.07;50.53
70830;SHT30;58451;51.550;7.208;2023-06-14T02:21:24;16.06;50.53
70830;SHT30;58451;51.550;7.208;2023-06-14T02:22:56;16.05;50.63
70830;SHT30;58451;51.550;7.208;2023-06-14T02:24:29;16.03;50.52
70830;SHT30;58451;51.550;7.208;2023-06-14T02:26:02;16.02;50.45
70830;SHT30;58451;51.550;7.208;2023-06-14T02:27:35;16.01;50.35
70830;SHT30;58451;51.550;7.208;2023-06-14T02:29:07;16.00;50.33
70830;SHT30;58451;51.550;7.208;2023-06-14T02:30:43;15.98;50.28
70830;SHT30;58451;51.550;7.208;2023-06-14T02:32:15;15.97;50.27
70830;SHT30;58451;51.550;7.208;2023-06-14T02:33:49;15.97;50.33
70830;SHT30;58451;51.550;7.208;2023-06-14T02:35:21;15.95;50.32
70830;SHT30;58451;51.550;7.208;2023-06-14T02:36:56;15.96;50.28
70830;SHT30;58451;51.550;7.208;2023-06-14T02:38:29;15.94;50.30
70830;SHT30;58451;51.550;7.208;2023-06-14T02:40:02;15.93;50.38
70830;SHT30;58451;51.550;7.208;2023-06-14T02:41:36;15.93;50.37
70830;SHT30;58451;51.550;7.208;2023-06-14T02:43:08;15.92;50.27
70830;SHT30;58451;51.550;7.208;2023-06-14T02:44:40;15.92;50.37
70830;SHT30;58451;51.550;7.208;2023-06-14T02:46:13;15.90;50.43
70830;SHT30;58451;51.550;7.208;2023-06-14T02:47:45;15.89;50.20
70830;SHT30;58451;51.550;7.208;2023-06-14T02:49:18;15.89;50.20
70830;SHT30;58451;51.550;7.208;2023-06-14T02:50:50;15.87;50.33
70830;SHT30;58451;51.550;7.208;2023-06-14T02:52:22;15.85;50.23
70830;SHT30;58451;51.550;7.208;2023-06-14T02:53:56;15.85;50.48
70830;SHT30;58451;51.550;7.208;2023-06-14T02:55:28;15.83;50.22
70830;SHT30;58451;51.550;7.208;2023-06-14T02:57:01;15.81;50.27
70830;SHT30;58451;51.550;7.208;2023-06-14T02:58:33;15.81;50.52
70830;SHT30;58451;51.550;7.208;2023-06-14T03:00:05;15.80;50.35
70830;SHT30;58451;51.550;7.208;2023-06-14T03:01:42;15.79;50.43
70830;SHT30;58451;51.550;7.208;2023-06-14T03:03:16;15.77;50.33
70830;SHT30;58451;51.550;7.208;2023-06-14T03:04:55;15.76;50.42
70830;SHT30;58451;51.550;7.208;2023-06-14T03:06:31;15.76;50.43
70830;SHT30;58451;51.550;7.208;2023-06-14T03:08:04;15.76;50.63
70830;SHT30;58451;51.550;7.208;2023-06-14T03:09:37;15.76;50.42
70830;SHT30;58451;51.550;7.208;2023-06-14T03:11:11;15.74;50.42
70830;SHT30;58451;51.550;7.208;2023-06-14T03:12:43;15.74;50.60
70830;SHT30;58451;51.550;7.208;2023-06-14T03:14:16;15.73;50.52
70830;SHT30;58451;51.550;7.208;2023-06-14T03:15:50;15.75;50.93
70830;SHT30;58451;51.550;7.208;2023-06-14T03:17:24;15.74;50.52
70830;SHT30;58451;51.550;7.208;2023-06-14T03:19:04;15.75;50.68
70830;SHT30;58451;51.550;7.208;2023-06-14T03:20:37;15.74;50.62
70830;SHT30;58451;51.550;7.208;2023-06-14T03:22:10;15.75;50.48
70830;SHT30;58451;51.550;7.208;2023-06-14T03:23:43;15.74;50.52
70830;SHT30;58451;51.550;7.208;2023-06-14T03:25:17;15.75;50.58
70830;SHT30;58451;51.550;7.208;2023-06-14T03:26:54;15.77;50.87
70830;SHT30;58451;51.550;7.208;2023-06-14T03:28:28;15.77;50.57
70830;SHT30;58451;51.550;7.208;2023-06-14T03:30:00;15.77;50.52
70830;SHT30;58451;51.550;7.208;2023-06-14T03:31:34;15.78;50.72
70830;SHT30;58451;51.550;7.208;2023-06-14T03:33:07;15.78;50.55
70830;SHT30;58451;51.550;7.208;2023-06-14T03:34:45;15.78;50.70
70830;SHT30;58451;51.550;7.208;2023-06-14T03:36:21;15.79;50.47
70830;SHT30;58451;51.550;7.208;2023-06-14T03:37:54;15.78;50.68
70830;SHT30;58451;51.550;7.208;2023-06-14T03:39:27;15.80;50.47
70830;SHT30;58451;51.550;7.208;2023-06-14T03:40:59;15.80;50.47
70830;SHT30;58451;51.550;7.208;2023-06-14T03:42:36;15.81;50.47
70830;SHT30;58451;51.550;7.208;2023-06-14T03:44:08;15.81;50.53
70830;SHT30;58451;51.550;7.208;2023-06-14T03:45:40;15.82;50.52
70830;SHT30;58451;51.550;7.208;2023-06-14T03:47:12;15.82;50.53
70830;SHT30;58451;51.550;7.208;2023-06-14T03:48:46;15.83;50.73
70830;SHT30;58451;51.550;7.208;2023-06-14T03:50:18;15.84;50.58
70830;SHT30;58451;51.550;7.208;2023-06-14T03:51:50;15.86;50.58
70830;SHT30;58451;51.550;7.208;2023-06-14T03:53:25;15.86;50.70
70830;SHT30;58451;51.550;7.208;2023-06-14T03:54:59;15.88;50.62
70830;SHT30;58451;51.550;7.208;2023-06-14T03:56:37;15.89;50.72
70830;SHT30;58451;51.550;7.208;2023-06-14T03:58:10;15.90;50.70
70830;SHT30;58451;51.550;7.208;2023-06-14T03:59:43;15.92;50.57
70830;SHT30;58451;51.550;7.208;2023-06-14T04:01:15;15.93;50.73
70830;SHT30;58451;51.550;7.208;2023-06-14T04:02:47;15.94;50.75
70830;SHT30;58451;51.550;7.208;2023-06-14T04:04:19;15.96;50.60
70830;SHT30;58451;51.550;7.208;2023-06-14T04:05:52;15.99;50.62
70830;SHT30;58451;51.550;7.208;2023-06-14T04:07:28;16.01;50.63
70830;SHT30;58451;51.550;7.208;2023-06-14T04:09:00;16.03;50.67
70830;SHT30;58451;51.550;7.208;2023-06-14T04:10:34;16.07;51.17
70830;SHT30;58451;51.550;7.208;2023-06-14T04:12:06;16.09;50.72
70830;SHT30;58451;51.550;7.208;2023-06-14T04:13:40;16.11;50.55
70830;SHT30;58451;51.550;7.208;2023-06-14T04:15:12;16.15;50.47
70830;SHT30;58451;51.550;7.208;2023-06-14T04:16:56;16.18;50.47
70830;SHT30;58451;51.550;7.208;2023-06-14T04:18:28;16.20;50.38
70830;SHT30;58451;51.550;7.208;2023-06-14T04:20:00;16.23;50.55
70830;SHT30;58451;51.550;7.208;2023-06-14T04:21:37;16.26;50.53
70830;SHT30;58451;51.550;7.208;2023-06-14T04:23:13;16.30;50.45
70830;SHT30;58451;51.550;7.208;2023-06-14T04:24:52;16.33;50.50
70830;SHT30;58451;51.550;7.208;2023-06-14T04:26:39;16.37;50.38
70830;SHT30;58451;51.550;7.208;2023-06-14T04:28:16;16.40;50.35
70830;SHT30;58451;51.550;7.208;2023-06-14T04:29:51;16.44;50.33
70830;SHT30;58451;51.550;7.208;2023-06-14T04:31:30;16.49;50.25
70830;SHT30;58451;51.550;7.208;2023-06-14T04:33:07;16.53;50.22
70830;SHT30;58451;51.550;7.208;2023-06-14T04:34:42;16.57;50.17
70830;SHT30;58451;51.550;7.208;2023-06-14T04:36:16;16.61;50.20
70830;SHT30;58451;51.550;7.208;2023-06-14T04:37:51;16.65;50.12
70830;SHT30;58451;51.550;7.208;2023-06-14T04:39:27;16.69;50.08
70830;SHT30;58451;51.550;7.208;2023-06-14T04:41:00;16.75;50.03
70830;SHT30;58451;51.550;7.208;2023-06-14T04:42:34;16.80;49.98
70830;SHT30;58451;51.550;7.208;2023-06-14T04:44:12;16.85;49.88
70830;SHT30;58451;51.550;7.208;2023-06-14T04:45:48;16.89;50.02
70830;SHT30;58451;51.550;7.208;2023-06-14T04:47:20;16.93;49.82
70830;SHT30;58451;51.550;7.208;2023-06-14T04:48:53;16.95;49.77
70830;SHT30;58451;51.550;7.208;2023-06-14T04:50:26;17.02;49.73
70830;SHT30;58451;51.550;7.208;2023-06-14T04:51:59;17.06;49.58
70830;SHT30;58451;51.550;7.208;2023-06-14T04:53:44;17.11;49.50
70830;SHT30;58451;51.550;7.208;2023-06-14T04:55:16;17.16;49.48
70830;SHT30;58451;51.550;7.208;2023-06-14T04:56:51;17.22;49.53
70830;SHT30;58451;51.550;7.208;2023-06-14T04:58:28;17.28;49.40
70830;SHT30;58451;51.550;7.208;2023-06-14T05:00:00;17.32;49.30
70830;SHT30;58451;51.550;7.208;2023-06-14T05:01:36;17.36;49.23
70830;SHT30;58451;51.550;7.208;2023-06-14T05:03:09;17.39;49.10
70830;SHT30;58451;51.550;7.208;2023-06-14T05:04:45;17.44;49.03
70830;SHT30;58451;51.550;7.208;2023-06-14T05:06:19;17.48;48.95
70830;SHT30;58451;51.550;7.208;2023-06-14T05:07:51;17.51;48.90
70830;SHT30;58451;51.550;7.208;2023-06-14T05:09:23;17.57;48.82
70830;SHT30;58451;51.550;7.208;2023-06-14T05:10:56;17.60;48.78
70830;SHT30;58451;51.550;7.208;2023-06-14T05:12:28;17.66;48.67
70830;SHT30;58451;51.550;7.208;2023-06-14T05:14:01;17.70;48.67
70830;SHT30;58451;51.550;7.208;2023-06-14T05:15:33;17.73;48.52
70830;SHT30;58451;51.550;7.208;2023-06-14T05:17:06;17.74;48.45
70830;SHT30;58451;51.550;7.208;2023-06-14T05:18:38;17.81;48.38
70830;SHT30;58451;51.550;7.208;2023-06-14T05:20:12;17.86;48.25
70830;SHT30;58451;51.550;7.208;2023-06-14T05:21:44;17.91;48.20
70830;SHT30;58451;51.550;7.208;2023-06-14T05:23:17;17.97;48.20
70830;SHT30;58451;51.550;7.208;2023-06-14T05:24:50;18.02;48.12
70830;SHT30;58451;51.550;7.208;2023-06-14T05:26:22;18.09;48.03
70830;SHT30;58451;51.550;7.208;2023-06-14T05:27:56;18.12;48.13
70830;SHT30;58451;51.550;7.208;2023-06-14T05:29:28;18.18;48.00
70830;SHT30;58451;51.550;7.208;2023-06-14T05:31:01;18.24;47.80
70830;SHT30;58451;51.550;7.208;2023-06-14T05:32:34;18.29;47.55
70830;SHT30;58451;51.550;7.208;2023-06-14T05:34:06;18.31;47.48
70830;SHT30;58451;51.550;7.208;2023-06-14T05:35:40;18.35;47.38
70830;SHT30;58451;51.550;7.208;2023-06-14T05:37:13;18.40;47.33
70830;SHT30;58451;51.550;7.208;2023-06-14T05:38:45;18.43;47.38
70830;SHT30;58451;51.550;7.208;2023-06-14T05:40:18;18.47;47.32
70830;SHT30;58451;51.550;7.208;2023-06-14T05:41:50;18.52;47.17
70830;SHT30;58451;51.550;7.208;2023-06-14T05:43:22;18.59;47.15
70830;SHT30;58451;51.550;7.208;2023-06-14T05:44:54;18.66;46.95
70830;SHT30;58451;51.550;7.208;2023-06-14T05:46:26;18.70;46.72
70830;SHT30;58451;51.550;7.208;2023-06-14T05:47:59;18.76;46.65
70830;SHT30;58451;51.550;7.208;2023-06-14T05:49:31;18.82;46.57
70830;SHT30;58451;51.550;7.208;2023-06-14T05:51:03;18.85;46.65
70830;SHT30;58451;51.550;7.208;2023-06-14T05:52:35;18.91;46.63
70830;SHT30;58451;51.550;7.208;2023-06-14T05:54:08;18.97;46.40
70830;SHT30;58451;51.550;7.208;2023-06-14T05:55:40;18.98;46.15
70830;SHT30;58451;51.550;7.208;2023-06-14T05:57:12;18.99;46.17
70830;SHT30;58451;51.550;7.208;2023-06-14T05:58:47;19.01;46.18
70830;SHT30;58451;51.550;7.208;2023-06-14T06:00:19;19.07;46.17
70830;SHT30;58451;51.550;7.208;2023-06-14T06:01:51;19.14;46.20
70830;SHT30;58451;51.550;7.208;2023-06-14T06:03:23;19.20;46.10
70830;SHT30;58451;51.550;7.208;2023-06-14T06:04:55;19.26;45.78
70830;SHT30;58451;51.550;7.208;2023-06-14T06:06:27;19.30;45.82
70830;SHT30;58451;51.550;7.208;2023-06-14T06:07:59;19.34;45.80
70830;SHT30;58451;51.550;7.208;2023-06-14T06:09:32;19.37;45.80
70830;SHT30;58451;51.550;7.208;2023-06-14T06:11:04;19.44;45.77
70830;SHT30;58451;51.550;7.208;2023-06-14T06:12:36;19.50;45.62
70830;SHT30;58451;51.550;7.208;2023-06-14T06:14:08;19.52;45.57
70830;SHT30;58451;51.550;7.208;2023-06-14T06:15:40;19.57;45.48
70830;SHT30;58451;51.550;7.208;2023-06-14T06:17:11;19.63;45.50
70830;SHT30;58451;51.550;7.208;2023-06-14T06:18:43;19.70;45.48
70830;SHT30;58451;51.550;7.208;2023-06-14T06:20:16;19.76;45.38
70830;SHT30;58451;51.550;7.208;2023-06-14T06:21:48;19.83;45.32
70830;SHT30;58451;51.550;7.208;2023-06-14T06:23:20;19.91;45.27
70830;SHT30;58451;51.550;7.208;2023-06-14T06:24:52;19.95;44.73
70830;SHT30;58451;51.550;7.208;2023-06-14T06:26:24;19.96;44.63
70830;SHT30;58451;51.550;7.208;2023-06-14T06:27:58;19.98;44.77
70830;SHT30;58451;51.550;7.208;2023-06-14T06:29:30;20.02;44.63
70830;SHT30;58451;51.550;7.208;2023-06-14T06:31:01;20.05;44.55
70830;SHT30;58451;51.550;7.208;2023-06-14T06:32:35;20.12;44.43
70830;SHT30;58451;51.550;7.208;2023-06-14T06:34:07;20.18;44.30
70830;SHT30;58451;51.550;7.208;2023-06-14T06:35:39;20.23;44.12
70830;SHT30;58451;51.550;7.208;2023-06-14T06:37:11;20.26;44.17
70830;SHT30;58451;51.550;7.208;2023-06-14T06:38:45;20.33;44.02
70830;SHT30;58451;51.550;7.208;2023-06-14T06:40:17;20.35;43.92
70830;SHT30;58451;51.550;7.208;2023-06-14T06:41:49;20.41;43.83
70830;SHT30;58451;51.550;7.208;2023-06-14T06:43:23;20.44;43.55
70830;SHT30;58451;51.550;7.208;2023-06-14T06:44:55;20.50;43.60
70830;SHT30;58451;51.550;7.208;2023-06-14T06:46:26;20.54;43.67
70830;SHT30;58451;51.550;7.208;2023-06-14T06:47:58;20.62;43.63
70830;SHT30;58451;51.550;7.208;2023-06-14T06:49:30;20.66;43.30
70830;SHT30;58451;51.550;7.208;2023-06-14T06:51:02;20.67;43.37
70830;SHT30;58451;51.550;7.208;2023-06-14T06:52:34;20.72;43.43
70830;SHT30;58451;51.550;7.208;2023-06-14T06:54:06;20.79;43.30
70830;SHT30;58451;51.550;7.208;2023-06-14T06:55:39;20.86;42.98
70830;SHT30;58451;51.550;7.208;2023-06-14T06:57:11;20.91;42.77
70830;SHT30;58451;51.550;7.208;2023-06-14T06:58:43;20.95;42.67
70830;SHT30;58451;51.550;7.208;2023-06-14T07:00:15;20.98;42.38
70830;SHT30;58451;51.550;7.208;2023-06-14T07:01:49;20.96;42.25
70830;SHT30;58451;51.550;7.208;2023-06-14T07:03:24;20.97;42.50
70830;SHT30;58451;51.550;7.208;2023-06-14T07:04:56;21.00;42.30
70830;SHT30;58451;51.550;7.208;2023-06-14T07:06:28;21.04;42.32
70830;SHT30;58451;51.550;7.208;2023-06-14T07:08:01;21.07;42.33
70830;SHT30;58451;51.550;7.208;2023-06-14T07:09:33;21.11;42.08
70830;SHT30;58451;51.550;7.208;2023-06-14T07:11:05;21.14;42.13
70830;SHT30;58451;51.550;7.208;2023-06-14T07:12:37;21.16;42.05
70830;SHT30;58451;51.550;7.208;2023-06-14T07:14:11;21.19;41.98
70830;SHT30;58451;51.550;7.208;2023-06-14T07:15:43;21.24;41.98
70830;SHT30;58451;51.550;7.208;2023-06-14T07:17:15;21.28;41.92
70830;SHT30;58451;51.550;7.208;2023-06-14T07:18:47;21.33;41.70
70830;SHT30;58451;51.550;7.208;2023-06-14T07:20:19;21.37;41.63
70830;SHT30;58451;51.550;7.208;2023-06-14T07:21:52;21.44;41.57
70830;SHT30;58451;51.550;7.208;2023-06-14T07:23:25;21.52;41.62
70830;SHT30;58451;51.550;7.208;2023-06-14T07:24:57;21.58;41.27
70830;SHT30;58451;51.550;7.208;2023-06-14T07:26:28;21.59;40.98
70830;SHT30;58451;51.550;7.208;2023-06-14T07:28:00;21.56;40.88
70830;SHT30;58451;51.550;7.208;2023-06-14T07:29:32;21.54;41.02
70830;SHT30;58451;51.550;7.208;2023-06-14T07:31:04;21.54;40.83
70830;SHT30;58451;51.550;7.208;2023-06-14T07:32:36;21.55;40.87
70830;SHT30;58451;51.550;7.208;2023-06-14T07:34:08;21.56;40.72
70830;SHT30;58451;51.550;7.208;2023-06-14T07:35:40;21.58;40.63
70830;SHT30;58451;51.550;7.208;2023-06-14T07:37:13;21.61;40.58
70830;SHT30;58451;51.550;7.208;2023-06-14T07:38:45;21.67;40.47
70830;SHT30;58451;51.550;7.208;2023-06-14T07:40:17;21.72;40.57
70830;SHT30;58451;51.550;7.208;2023-06-14T07:41:49;21.79;40.60
70830;SHT30;58451;51.550;7.208;2023-06-14T07:43:21;21.85;40.48
70830;SHT30;58451;51.550;7.208;2023-06-14T07:44:53;21.86;40.15
70830;SHT30;58451;51.550;7.208;2023-06-14T07:46:25;21.89;40.33
70830;SHT30;58451;51.550;7.208;2023-06-14T07:47:57;21.94;40.42
70830;SHT30;58451;51.550;7.208;2023-06-14T07:49:29;21.98;40.33
70830;SHT30;58451;51.550;7.208;2023-06-14T07:51:01;21.99;40.28
70830;SHT30;58451;51.550;7.208;2023-06-14T07:52:33;22.06;40.18
70830;SHT30;58451;51.550;7.208;2023-06-14T07:54:05;22.09;40.23
70830;SHT30;58451;51.550;7.208;2023-06-14T07:55:38;22.13;39.92
70830;SHT30;58451;51.550;7.208;2023-06-14T07:57:24;22.16;39.53
70830;SHT30;58451;51.550;7.208;2023-06-14T07:58:55;22.10;39.28
70830;SHT30;58451;51.550;7.208;2023-06-14T08:00:27;22.05;39.58
70830;SHT30;58451;51.550;7.208;2023-06-14T08:01:59;22.07;39.68
70830;SHT30;58451;51.550;7.208;2023-06-14T08:03:31;22.14;39.45
70830;SHT30;58451;51.550;7.208;2023-06-14T08:05:04;22.18;39.28
70830;SHT30;58451;51.550;7.208;2023-06-14T08:06:36;22.24;39.50
70830;SHT30;58451;51.550;7.208;2023-06-14T08:08:11;22.31;39.38
70830;SHT30;58451;51.550;7.208;2023-06-14T08:09:44;22.32;39.00
70830;SHT30;58451;51.550;7.208;2023-06-14T08:11:15;22.32;39.25
70830;SHT30;58451;51.550;7.208;2023-06-14T08:12:47;22.35;39.22
70830;SHT30;58451;51.550;7.208;2023-06-14T08:14:22;22.40;39.17
70830;SHT30;58451;51.550;7.208;2023-06-14T08:15:54;22.45;39.18
70830;SHT30;58451;51.550;7.208;2023-06-14T08:17:28;22.51;39.02
70830;SHT30;58451;51.550;7.208;2023-06-14T08:19:00;22.55;39.08
70830;SHT30;58451;51.550;7.208;2023-06-14T08:20:32;22.59;38.87
70830;SHT30;58451;51.550;7.208;2023-06-14T08:22:06;22.61;38.68
70830;SHT30;58451;51.550;7.208;2023-06-14T08:23:38;22.52;38.85
70830;SHT30;58451;51.550;7.208;2023-06-14T08:25:10;22.44;39.12
70830;SHT30;58451;51.550;7.208;2023-06-14T08:26:44;22.47;39.20
70830;SHT30;58451;51.550;7.208;2023-06-14T08:28:15;22.50;39.28
70830;SHT30;58451;51.550;7.208;2023-06-14T08:29:47;22.57;39.12
70830;SHT30;58451;51.550;7.208;2023-06-14T08:31:19;22.64;38.47
70830;SHT30;58451;51.550;7.208;2023-06-14T08:32:51;22.69;38.28
70830;SHT30;58451;51.550;7.208;2023-06-14T08:34:41;22.73;37.97
70830;SHT30;58451;51.550;7.208;2023-06-14T08:36:23;22.76;36.65
70830;SHT30;58451;51.550;7.208;2023-06-14T08:37:55;22.72;37.10
70830;SHT30;58451;51.550;7.208;2023-06-14T08:39:27;22.75;36.90
70830;SHT30;58451;51.550;7.208;2023-06-14T08:40:59;22.75;36.73
70830;SHT30;58451;51.550;7.208;2023-06-14T08:42:32;22.76;36.73
70830;SHT30;58451;51.550;7.208;2023-06-14T08:44:06;22.77;36.40
70830;SHT30;58451;51.550;7.208;2023-06-14T08:45:38;22.78;36.38
70830;SHT30;58451;51.550;7.208;2023-06-14T08:47:11;22.81;36.03
70830;SHT30;58451;51.550;7.208;2023-06-14T08:48:44;22.82;36.18
70830;SHT30;58451;51.550;7.208;2023-06-14T08:50:20;22.89;35.93
70830;SHT30;58451;51.550;7.208;2023-06-14T08:52:02;22.87;35.83
70830;SHT30;58451;51.550;7.208;2023-06-14T08:53:38;22.82;35.58
70830;SHT30;58451;51.550;7.208;2023-06-14T08:55:13;22.75;35.83
70830;SHT30;58451;51.550;7.208;2023-06-14T08:56:46;22.75;36.15
70830;SHT30;58451;51.550;7.208;2023-06-14T08:58:20;22.81;36.28
70830;SHT30;58451;51.550;7.208;2023-06-14T08:59:55;22.82;35.83
70830;SHT30;58451;51.550;7.208;2023-06-14T09:01:28;22.81;35.98
70830;SHT30;58451;51.550;7.208;2023-06-14T09:03:00;22.82;35.73
70830;SHT30;58451;51.550;7.208;2023-06-14T09:04:33;22.81;35.63
70830;SHT30;58451;51.550;7.208;2023-06-14T09:06:05;22.78;35.58
70830;SHT30;58451;51.550;7.208;2023-06-14T09:07:37;22.80;35.78
70830;SHT30;58451;51.550;7.208;2023-06-14T09:09:10;22.86;35.55
70830;SHT30;58451;51.550;7.208;2023-06-14T09:10:42;22.88;35.10
70830;SHT30;58451;51.550;7.208;2023-06-14T09:12:16;22.84;35.33
70830;SHT30;58451;51.550;7.208;2023-06-14T09:13:48;22.85;35.22
70830;SHT30;58451;51.550;7.208;2023-06-14T09:15:21;22.88;35.28
70830;SHT30;58451;51.550;7.208;2023-06-14T09:16:53;22.91;35.07
70830;SHT30;58451;51.550;7.208;2023-06-14T09:18:36;22.91;35.07
70830;SHT30;58451;51.550;7.208;2023-06-14T09:20:12;22.94;34.93
70830;SHT30;58451;51.550;7.208;2023-06-14T09:21:49;22.94;34.92
70830;SHT30;58451;51.550;7.208;2023-06-14T09:23:24;22.94;35.20
70830;SHT30;58451;51.550;7.208;2023-06-14T09:24:56;22.94;35.15
70830;SHT30;58451;51.550;7.208;2023-06-14T09:26:28;22.89;35.25
70830;SHT30;58451;51.550;7.208;2023-06-14T09:28:01;22.89;35.42
70830;SHT30;58451;51.550;7.208;2023-06-14T09:29:32;22.92;34.92
70830;SHT30;58451;51.550;7.208;2023-06-14T09:31:04;22.90;35.02
70830;SHT30;58451;51.550;7.208;2023-06-14T09:32:37;22.89;35.27
70830;SHT30;58451;51.550;7.208;2023-06-14T09:34:11;22.95;35.27
70830;SHT30;58451;51.550;7.208;2023-06-14T09:35:45;23.00;34.87
70830;SHT30;58451;51.550;7.208;2023-06-14T09:37:30;22.94;35.25
70830;SHT30;58451;51.550;7.208;2023-06-14T09:39:04;22.96;35.38
70830;SHT30;58451;51.550;7.208;2023-06-14T09:40:39;23.01;35.53
70830;SHT30;58451;51.550;7.208;2023-06-14T09:42:17;23.02;35.40
70830;SHT30;58451;51.550;7.208;2023-06-14T09:43:50;23.07;35.55
70830;SHT30;58451;51.550;7.208;2023-06-14T09:45:22;23.17;34.73
70830;SHT30;58451;51.550;7.208;2023-06-14T09:46:55;23.26;34.13
70830;SHT30;58451;51.550;7.208;2023-06-14T09:48:27;23.33;33.83
70830;SHT30;58451;51.550;7.208;2023-06-14T09:49:59;23.41;33.88
70830;SHT30;58451;51.550;7.208;2023-06-14T09:51:31;23.49;33.60
70830;SHT30;58451;51.550;7.208;2023-06-14T09:53:07;23.56;33.70
70830;SHT30;58451;51.550;7.208;2023-06-14T09:54:42;23.64;33.57